createdAt,value
2017-12-05T00:01:46.170Z,102139.67
2017-12-05T00:04:14.448Z,102138.25
2017-12-05T00:06:42.751Z,102135.73
2017-12-05T00:09:11.032Z,102131.45
2017-12-05T00:11:39.371Z,102128.11
2017-12-05T00:14:07.655Z,102119.99
2017-12-05T00:16:36.163Z,102123.64
2017-12-05T00:19:04.615Z,102114.17
2017-12-05T00:21:32.941Z,102111.09
2017-12-05T00:24:01.222Z,102111.80
2017-12-05T00:26:29.550Z,102101.09
2017-12-05T00:28:57.860Z,102104.19
2017-12-05T00:31:26.201Z,102106.40
2017-12-05T00:33:54.454Z,102106.29
2017-12-05T00:36:22.748Z,102103.77
2017-12-05T00:38:51.015Z,102105.88
2017-12-05T00:41:19.315Z,102096.30
2017-12-05T00:43:47.608Z,102099.08
2017-12-05T00:46:15.994Z,102102.27
2017-12-05T00:48:44.267Z,102100.84
2017-12-05T00:51:12.559Z,102109.28
2017-12-05T00:53:40.848Z,102105.42
2017-12-05T00:56:09.134Z,102107.07
2017-12-05T00:58:37.415Z,102105.68
2017-12-05T01:01:05.733Z,102104.78
2017-12-05T01:03:34.051Z,102103.08
2017-12-05T01:06:02.347Z,102110.63
2017-12-05T01:08:30.642Z,102108.00
2017-12-05T01:10:58.957Z,102098.76
2017-12-05T01:13:27.274Z,102098.11
2017-12-05T01:15:55.583Z,102107.81
2017-12-05T01:18:24.015Z,102099.38
2017-12-05T01:20:52.298Z,102103.95
2017-12-05T01:23:20.554Z,102102.08
2017-12-05T01:25:48.879Z,102104.19
2017-12-05T01:28:17.337Z,102101.36
2017-12-05T01:30:45.644Z,102100.53
2017-12-05T01:33:13.950Z,102103.95
2017-12-05T01:35:42.404Z,102105.19
2017-12-05T01:38:10.911Z,102103.73
2017-12-05T01:40:39.231Z,102098.88
2017-12-05T01:43:07.530Z,102106.50
2017-12-05T01:45:35.915Z,102098.88
2017-12-05T01:48:04.423Z,102097.49
2017-12-05T01:50:32.713Z,102104.55
2017-12-05T01:53:01.138Z,102098.34
2017-12-05T01:55:29.443Z,102093.89
2017-12-05T01:57:57.719Z,102097.95
2017-12-05T02:00:26.022Z,102100.58
2017-12-05T02:02:54.332Z,102085.55
2017-12-05T02:05:22.633Z,102088.02
2017-12-05T02:07:51.017Z,102093.02
2017-12-05T02:10:19.324Z,102089.08
2017-12-05T02:12:47.756Z,102084.91
2017-12-05T02:15:16.076Z,102084.49
2017-12-05T02:17:44.761Z,102078.63
2017-12-05T02:20:13.231Z,102084.67
2017-12-05T02:22:41.535Z,102075.66
2017-12-05T02:25:09.823Z,102073.60
2017-12-05T02:27:38.234Z,102073.34
2017-12-05T02:30:06.565Z,102067.63
2017-12-05T02:32:34.859Z,102068.13
2017-12-05T02:35:03.119Z,102068.05
2017-12-05T02:37:31.531Z,102057.19
2017-12-05T02:39:59.803Z,102058.42
2017-12-05T02:42:28.225Z,102059.81
2017-12-05T02:44:56.575Z,102054.41
2017-12-05T02:47:24.899Z,102046.22
2017-12-05T02:49:53.174Z,102046.38
2017-12-05T02:52:21.508Z,102044.00
2017-12-05T02:54:49.882Z,102041.07
2017-12-05T02:57:18.208Z,102042.09
2017-12-05T02:59:46.537Z,102042.44
2017-12-05T03:02:15.351Z,102044.08
2017-12-05T03:04:43.624Z,102043.18
2017-12-05T03:07:11.933Z,102048.59
2017-12-05T03:09:40.255Z,102045.23
2017-12-05T03:12:08.555Z,102039.94
2017-12-05T03:14:37.103Z,102038.85
2017-12-05T03:17:05.416Z,102036.09
2017-12-05T03:19:33.736Z,102030.20
2017-12-05T03:22:02.010Z,102038.28
2017-12-05T03:24:30.324Z,102035.62
2017-12-05T03:26:58.607Z,102038.78
2017-12-05T03:29:26.904Z,102030.66
2017-12-05T03:31:55.199Z,102038.62
2017-12-05T03:34:23.501Z,102038.22
2017-12-05T03:36:51.840Z,102032.42
2017-12-05T03:39:20.110Z,102034.88
2017-12-05T03:41:48.583Z,102030.78
2017-12-05T03:44:16.864Z,102033.77
2017-12-05T03:46:45.324Z,102029.72
2017-12-05T03:49:13.791Z,102030.78
2017-12-05T03:51:42.087Z,102027.09
2017-12-05T03:54:10.385Z,102025.11
2017-12-05T03:56:38.680Z,102028.26
2017-12-05T03:59:07.003Z,102028.05
2017-12-05T04:01:35.324Z,102029.41
2017-12-05T04:04:03.604Z,102027.28
2017-12-05T04:06:31.878Z,102029.23
2017-12-05T04:09:00.172Z,102028.62
2017-12-05T04:11:28.467Z,102026.90
2017-12-05T04:13:56.771Z,102020.82
2017-12-05T04:16:25.082Z,102024.22
2017-12-05T04:18:53.371Z,102020.52
2017-12-05T04:21:21.687Z,102021.95
2017-12-05T04:23:50.008Z,102023.60
2017-12-05T04:26:18.362Z,102017.47
2017-12-05T04:28:46.641Z,102021.34
2017-12-05T04:31:14.931Z,102016.50
2017-12-05T04:33:43.223Z,102020.92
2017-12-05T04:36:11.545Z,102018.14
2017-12-05T04:38:39.979Z,102015.19
2017-12-05T04:41:08.431Z,102023.84
2017-12-05T04:43:36.899Z,102020.65
2017-12-05T04:46:05.224Z,102015.91
2017-12-05T04:48:33.564Z,102014.37
2017-12-05T04:51:01.873Z,102012.30
2017-12-05T04:53:30.199Z,102015.73
2017-12-05T04:55:58.498Z,102013.59
2017-12-05T04:58:26.963Z,102016.37
2017-12-05T05:00:55.268Z,102015.89
2017-12-05T05:03:23.631Z,102011.62
2017-12-05T05:05:51.938Z,102013.66
2017-12-05T05:08:20.247Z,102020.94
2017-12-05T05:10:48.551Z,102010.79
2017-12-05T05:13:16.854Z,102011.62
2017-12-05T05:15:45.307Z,102017.44
2017-12-05T05:18:13.775Z,102022.02
2017-12-05T05:20:42.195Z,102017.90
2017-12-05T05:23:10.472Z,102020.42
2017-12-05T05:25:38.787Z,102020.01
2017-12-05T05:28:07.080Z,102022.41
2017-12-05T05:30:35.400Z,102024.44
2017-12-05T05:33:03.819Z,102017.48
2017-12-05T05:35:32.123Z,102029.42
2017-12-05T05:38:00.419Z,102032.73
2017-12-05T05:40:28.939Z,102038.36
2017-12-05T05:42:57.246Z,102035.92
2017-12-05T05:45:25.543Z,102039.59
2017-12-05T05:47:53.875Z,102037.36
2017-12-05T05:50:22.191Z,102045.23
2017-12-05T05:52:50.663Z,102048.04
2017-12-05T05:55:18.954Z,102045.59
2017-12-05T05:57:47.242Z,102045.84
2017-12-05T06:00:15.539Z,102052.16
2017-12-05T06:02:43.977Z,102058.52
2017-12-05T06:05:12.279Z,102060.73
2017-12-05T06:07:40.727Z,102063.90
2017-12-05T06:10:09.044Z,102064.75
2017-12-05T06:12:37.332Z,102070.02
2017-12-05T06:15:05.779Z,102067.66
2017-12-05T06:17:34.086Z,102077.21
2017-12-05T06:20:02.536Z,102076.44
2017-12-05T06:22:30.882Z,102076.39
2017-12-05T06:24:59.151Z,102076.65
2017-12-05T06:27:27.504Z,102084.65
2017-12-05T06:29:55.820Z,102082.77
2017-12-05T06:32:24.131Z,102077.27
2017-12-05T06:34:52.587Z,102084.94
2017-12-05T06:37:20.912Z,102086.51
2017-12-05T06:39:49.189Z,102092.48
2017-12-05T06:42:17.731Z,102086.41
2017-12-05T06:44:46.041Z,102094.03
2017-12-05T06:47:14.345Z,102090.83
2017-12-05T06:49:42.604Z,102092.69
2017-12-05T06:52:10.969Z,102095.05
2017-12-05T06:54:39.235Z,102097.01
2017-12-05T06:57:07.519Z,102100.20
2017-12-05T06:59:36.604Z,102099.53
2017-12-05T07:02:04.996Z,102099.15
2017-12-05T07:04:33.319Z,102104.45
2017-12-05T07:07:01.631Z,102115.55
2017-12-05T07:09:29.911Z,102107.20
2017-12-05T07:11:59.254Z,102117.29
2017-12-05T07:14:29.157Z,102112.17
2017-12-05T07:16:57.622Z,102118.55
2017-12-05T07:19:25.899Z,102118.36
2017-12-05T07:21:54.233Z,102119.64
2017-12-05T07:24:22.583Z,102121.34
2017-12-05T07:26:50.925Z,102120.09
2017-12-05T07:29:19.628Z,102126.41
2017-12-05T07:31:47.939Z,102121.80
2017-12-05T07:34:16.430Z,102126.45
2017-12-05T07:36:44.779Z,102136.86
2017-12-05T07:39:13.243Z,102136.40
2017-12-05T07:41:41.595Z,102134.34
2017-12-05T07:44:09.897Z,102140.57
2017-12-05T07:46:38.226Z,102139.95
2017-12-05T07:49:06.623Z,102134.81
2017-12-05T07:51:35.080Z,102138.98
2017-12-05T07:54:03.379Z,102139.27
2017-12-05T07:56:31.716Z,102140.89
2017-12-05T07:59:00.019Z,102138.70
2017-12-05T08:01:28.375Z,102141.77
2017-12-05T08:03:56.660Z,102139.81
2017-12-05T08:06:24.971Z,102151.61
2017-12-05T08:08:53.415Z,102151.84
2017-12-05T08:11:21.977Z,102153.56
2017-12-05T08:13:50.236Z,102155.22
2017-12-05T08:16:18.548Z,102157.59
2017-12-05T08:18:47.065Z,102163.09
2017-12-05T08:21:15.659Z,102161.42
2017-12-05T08:23:44.163Z,102155.81
2017-12-05T08:26:12.469Z,102166.65
2017-12-05T08:28:40.875Z,102159.47
2017-12-05T08:31:09.183Z,102157.48
2017-12-05T08:33:37.616Z,102167.21
2017-12-05T08:36:06.104Z,102165.17
2017-12-05T08:38:36.102Z,102174.61
2017-12-05T08:41:05.948Z,102181.45
2017-12-05T08:43:34.227Z,102176.45
2017-12-05T08:46:02.525Z,102179.05
2017-12-05T08:48:30.804Z,102181.45
2017-12-05T08:50:59.159Z,102179.65
2017-12-05T08:53:27.487Z,102180.14
2017-12-05T08:55:55.784Z,102175.44
2017-12-05T08:58:24.425Z,102181.15
2017-12-05T09:00:53.234Z,102183.70
2017-12-05T09:03:21.590Z,102185.17
2017-12-05T09:05:50.263Z,102176.41
2017-12-05T09:08:18.619Z,102183.11
2017-12-05T09:10:46.940Z,102196.45
2017-12-05T09:13:15.228Z,102188.77
2017-12-05T09:15:43.524Z,102193.70
2017-12-05T09:18:11.796Z,102192.16
2017-12-05T09:20:40.215Z,102192.01
2017-12-05T09:23:08.652Z,102188.34
2017-12-05T09:25:37.310Z,102193.02
2017-12-05T09:28:05.618Z,102189.00
2017-12-05T09:30:33.932Z,102194.88
2017-12-05T09:33:02.225Z,102184.89
2017-12-05T09:35:30.692Z,102200.02
2017-12-05T09:37:59.559Z,102200.43
2017-12-05T09:40:27.851Z,102191.36
2017-12-05T09:42:56.157Z,102194.56
2017-12-05T09:45:24.619Z,102189.47
2017-12-05T09:47:52.939Z,102190.42
2017-12-05T09:50:21.226Z,102197.13
2017-12-05T09:52:49.623Z,102189.58
2017-12-05T09:55:17.916Z,102190.98
2017-12-05T09:57:46.399Z,102180.30
2017-12-05T10:00:14.717Z,102180.95
2017-12-05T10:02:43.022Z,102176.62
2017-12-05T10:05:11.347Z,102171.33
2017-12-05T10:07:39.618Z,102174.58
2017-12-05T10:10:07.907Z,102169.52
2017-12-05T10:12:36.215Z,102165.89
2017-12-05T10:15:04.734Z,102160.17
2017-12-05T10:17:32.992Z,102165.40
2017-12-05T10:20:01.283Z,102162.39
2017-12-05T10:22:29.794Z,102162.30
2017-12-05T10:24:58.099Z,102171.89
2017-12-05T10:27:26.431Z,102169.81
2017-12-05T10:29:54.698Z,102162.13
2017-12-05T10:32:23.108Z,102159.66
2017-12-05T10:34:51.412Z,102165.80
2017-12-05T10:37:19.747Z,102163.50
2017-12-05T10:39:48.011Z,102168.27
2017-12-05T10:42:16.339Z,102165.63
2017-12-05T10:44:44.632Z,102172.01
2017-12-05T10:47:12.956Z,102169.66
2017-12-05T10:49:41.211Z,102167.22
2017-12-05T10:52:09.699Z,102158.38
2017-12-05T10:54:38.231Z,102161.02
2017-12-05T10:57:06.899Z,102169.20
2017-12-05T10:59:35.184Z,102176.63
2017-12-05T11:02:03.512Z,102165.08
2017-12-05T11:04:31.942Z,102162.87
2017-12-05T11:07:00.276Z,102166.32
2017-12-05T11:09:28.632Z,102164.84
2017-12-05T11:11:57.139Z,102164.80
2017-12-05T11:14:25.426Z,102161.59
2017-12-05T11:16:53.765Z,102166.34
2017-12-05T11:19:22.155Z,102168.81
2017-12-05T11:21:51.323Z,102167.16
2017-12-05T11:24:19.603Z,102167.62
2017-12-05T11:26:47.935Z,102171.32
2017-12-05T11:29:16.272Z,102168.44
2017-12-05T11:31:44.875Z,102162.45
2017-12-05T11:34:13.171Z,102171.22
2017-12-05T11:36:41.475Z,102166.06
2017-12-05T11:39:09.919Z,102169.25
2017-12-05T11:41:38.243Z,102173.73
2017-12-05T11:44:06.535Z,102167.86
2017-12-05T11:46:35.682Z,102165.34
2017-12-05T11:49:03.995Z,102167.83
2017-12-05T11:51:32.347Z,102159.47
2017-12-05T11:54:00.611Z,102160.44
2017-12-05T11:56:28.927Z,102163.95
2017-12-05T11:58:57.203Z,102159.63
2017-12-05T12:01:25.523Z,102150.59
2017-12-05T12:03:53.991Z,102155.34
2017-12-05T12:06:22.514Z,102158.02
2017-12-05T12:08:50.936Z,102160.39
2017-12-05T12:11:19.266Z,102165.31
2017-12-05T12:13:47.680Z,102163.92
2017-12-05T12:16:16.043Z,102158.36
2017-12-05T12:18:44.330Z,102159.75
2017-12-05T12:21:12.742Z,102160.73
2017-12-05T12:23:41.015Z,102165.13
2017-12-05T12:26:09.339Z,102162.53
2017-12-05T12:28:37.617Z,102154.41
2017-12-05T12:31:05.960Z,102159.08
2017-12-05T12:33:34.247Z,102156.47
2017-12-05T12:36:02.818Z,102158.87
2017-12-05T12:38:31.091Z,102168.69
2017-12-05T12:40:59.601Z,102164.23
2017-12-05T12:43:28.043Z,102166.88
2017-12-05T12:45:56.359Z,102162.14
2017-12-05T12:48:24.787Z,102169.92
2017-12-05T12:50:53.187Z,102159.08
2017-12-05T12:53:21.466Z,102155.89
2017-12-05T12:55:49.755Z,102161.30
2017-12-05T12:58:18.016Z,102159.65
2017-12-05T13:00:46.309Z,102157.28
2017-12-05T13:03:14.607Z,102155.99
2017-12-05T13:05:42.927Z,102156.97
2017-12-05T13:08:11.332Z,102161.38
2017-12-05T13:10:39.632Z,102150.42
2017-12-05T13:13:07.911Z,102149.59
2017-12-05T13:15:36.191Z,102146.89
2017-12-05T13:18:04.473Z,102149.11
2017-12-05T13:20:32.859Z,102140.42
2017-12-05T13:23:01.144Z,102140.91
2017-12-05T13:25:29.439Z,102138.54
2017-12-05T13:27:57.715Z,102136.99
2017-12-05T13:30:26.119Z,102144.11
2017-12-05T13:32:54.446Z,102143.54
2017-12-05T13:35:22.758Z,102139.36
2017-12-05T13:37:51.107Z,102132.91
2017-12-05T13:40:19.433Z,102128.39
2017-12-05T13:42:47.740Z,102141.58
2017-12-05T13:45:16.238Z,102142.97
2017-12-05T13:47:44.491Z,102141.73
2017-12-05T13:50:12.812Z,102144.93
2017-12-05T13:52:41.124Z,102143.95
2017-12-05T13:55:09.438Z,102143.13
2017-12-05T13:57:37.728Z,102136.33
2017-12-05T14:00:06.040Z,102142.72
2017-12-05T14:02:34.346Z,102138.38
2017-12-05T14:05:02.653Z,102137.56
2017-12-05T14:07:31.027Z,102139.78
2017-12-05T14:09:59.271Z,102143.47
2017-12-05T14:12:27.854Z,102139.78
2017-12-05T14:14:56.156Z,102137.56
2017-12-05T14:17:24.599Z,102137.97
2017-12-05T14:19:52.879Z,102135.19
2017-12-05T14:22:21.359Z,102129.55
2017-12-05T14:24:49.856Z,102141.09
2017-12-05T14:27:18.242Z,102138.06
2017-12-05T14:29:46.947Z,102133.31
2017-12-05T14:32:15.276Z,102138.31
2017-12-05T14:34:43.568Z,102136.73
2017-12-05T14:37:11.907Z,102134.94
2017-12-05T14:39:40.286Z,102128.16
2017-12-05T14:42:08.829Z,102130.60
2017-12-05T14:44:38.399Z,102125.14
2017-12-05T14:47:07.209Z,102127.36
2017-12-05T14:49:35.488Z,102129.42
2017-12-05T14:52:03.819Z,102126.38
2017-12-05T14:54:32.383Z,102134.00
2017-12-05T14:57:00.675Z,102127.61
2017-12-05T14:59:28.970Z,102125.66
2017-12-05T15:01:57.272Z,102130.88
2017-12-05T15:04:25.695Z,102119.11
2017-12-05T15:06:54.523Z,102128.66
2017-12-05T15:09:23.062Z,102123.09
2017-12-05T15:11:51.395Z,102120.57
2017-12-05T15:14:20.890Z,102123.09
2017-12-05T15:16:50.803Z,102131.86
2017-12-05T15:19:21.155Z,102121.55
2017-12-05T15:21:49.634Z,102117.79
2017-12-05T15:24:18.047Z,102117.38
2017-12-05T15:26:46.339Z,102127.53
2017-12-05T15:29:14.790Z,102129.75
2017-12-05T15:31:43.111Z,102122.22
2017-12-05T15:34:11.439Z,102125.00
2017-12-05T15:36:39.744Z,102121.09
2017-12-05T15:39:08.035Z,102126.66
2017-12-05T15:41:36.532Z,102120.52
2017-12-05T15:44:04.836Z,102127.48
2017-12-05T15:46:33.141Z,102131.66
2017-12-05T15:49:01.525Z,102135.83
2017-12-05T15:51:29.815Z,102134.44
2017-12-05T15:53:58.191Z,102127.48
2017-12-05T15:56:26.487Z,102136.23
2017-12-05T15:58:54.819Z,102139.02
2017-12-05T16:01:23.165Z,102135.67
2017-12-05T16:03:51.734Z,102133.68
2017-12-05T16:06:20.032Z,102142.29
2017-12-05T16:08:48.315Z,102138.27
2017-12-05T16:11:16.759Z,102138.84
2017-12-05T16:13:45.028Z,102149.74
2017-12-05T16:16:13.371Z,102135.67
2017-12-05T16:18:41.661Z,102134.84
2017-12-05T16:21:10.029Z,102135.67
2017-12-05T16:23:38.295Z,102131.23
2017-12-05T16:26:06.582Z,102132.63
2017-12-05T16:28:35.063Z,102128.61
2017-12-05T16:31:03.354Z,102130.83
2017-12-05T16:33:31.615Z,102132.22
2017-12-05T16:35:59.907Z,102127.89
2017-12-05T16:38:28.272Z,102120.27
2017-12-05T16:40:56.619Z,102120.27
2017-12-05T16:43:24.920Z,102126.50
2017-12-05T16:45:53.245Z,102130.90
2017-12-05T16:48:21.515Z,102118.37
2017-12-05T16:50:49.995Z,102122.73
2017-12-05T16:53:18.276Z,102124.44
2017-12-05T16:55:46.759Z,102121.14
2017-12-05T16:58:15.211Z,102125.98
2017-12-05T17:00:43.576Z,102129.59
2017-12-05T17:03:12.017Z,102127.48
2017-12-05T17:05:40.610Z,102126.08
2017-12-05T17:08:08.924Z,102126.72
2017-12-05T17:10:37.252Z,102128.94
2017-12-05T17:13:05.532Z,102127.06
2017-12-05T17:15:33.834Z,102131.87
2017-12-05T17:18:02.138Z,102130.10
2017-12-05T17:20:30.435Z,102132.70
2017-12-05T17:22:58.743Z,102132.39
2017-12-05T17:25:27.135Z,102127.50
2017-12-05T17:27:55.498Z,102119.81
2017-12-05T17:30:23.840Z,102121.28
2017-12-05T17:32:52.115Z,102125.96
2017-12-05T17:35:21.279Z,102122.51
2017-12-05T17:37:49.636Z,102126.12
2017-12-05T17:40:18.083Z,102118.90
2017-12-05T17:42:46.515Z,102126.84
2017-12-05T17:45:14.830Z,102129.63
2017-12-05T17:47:43.296Z,102135.45
2017-12-05T17:50:11.609Z,102134.21
2017-12-05T17:52:40.012Z,102134.73
2017-12-05T17:55:08.817Z,102141.42
2017-12-05T17:57:37.360Z,102135.30
2017-12-05T18:00:05.806Z,102136.12
2017-12-05T18:02:34.179Z,102143.34
2017-12-05T18:05:02.440Z,102132.84
2017-12-05T18:07:30.959Z,102131.29
2017-12-05T18:09:59.234Z,102132.37
2017-12-05T18:12:27.616Z,102129.59
2017-12-05T18:14:55.886Z,102139.17
2017-12-05T18:17:24.476Z,102131.39
2017-12-05T18:19:52.738Z,102137.38
2017-12-05T18:22:21.099Z,102135.25
2017-12-05T18:24:49.415Z,102135.67
2017-12-05T18:27:17.844Z,102130.52
2017-12-05T18:29:46.159Z,102123.93
2017-12-05T18:32:14.588Z,102128.52
2017-12-05T18:34:42.880Z,102125.17
2017-12-05T18:37:11.343Z,102119.45
2017-12-05T18:39:39.635Z,102119.86
2017-12-05T18:42:07.998Z,102117.89
2017-12-05T18:44:36.299Z,102128.20
2017-12-05T18:47:04.630Z,102128.05
2017-12-05T18:49:32.936Z,102126.50
2017-12-05T18:52:01.320Z,102127.48
2017-12-05T18:54:29.592Z,102123.72
2017-12-05T18:56:57.944Z,102121.91
2017-12-05T18:59:26.219Z,102120.94
2017-12-05T19:01:54.516Z,102118.98
2017-12-05T19:04:22.899Z,102117.02
2017-12-05T19:06:51.239Z,102121.61
2017-12-05T19:09:19.667Z,102114.87
2017-12-05T19:11:48.083Z,102119.30
2017-12-05T19:14:16.391Z,102111.92
2017-12-05T19:16:46.599Z,102124.87
2017-12-05T19:19:15.821Z,102118.89
2017-12-05T19:21:45.708Z,102117.75
2017-12-05T19:24:14.183Z,102118.73
2017-12-05T19:26:42.474Z,102125.69
2017-12-05T19:29:10.987Z,102122.75
2017-12-05T19:31:39.427Z,102124.30
2017-12-05T19:34:07.988Z,102118.32
2017-12-05T19:36:36.492Z,102119.45
2017-12-05T19:39:05.032Z,102124.30
2017-12-05T19:41:33.559Z,102128.22
2017-12-05T19:44:01.827Z,102123.48
2017-12-05T19:46:30.163Z,102136.58
2017-12-05T19:48:58.466Z,102127.08
2017-12-05T19:51:26.935Z,102134.72
2017-12-05T19:53:55.206Z,102123.33
2017-12-05T19:56:23.615Z,102125.13
2017-12-05T19:58:52.063Z,102119.97
2017-12-05T20:01:20.702Z,102113.58
2017-12-05T20:03:48.990Z,102117.19
2017-12-05T20:06:17.798Z,102113.27
2017-12-05T20:08:46.551Z,102123.58
2017-12-05T20:11:15.571Z,102113.27
2017-12-05T20:13:44.701Z,102109.81
2017-12-05T20:16:13.087Z,102116.88
2017-12-05T20:18:41.499Z,102111.61
2017-12-05T20:21:09.815Z,102105.63
2017-12-05T20:23:38.280Z,102113.67
2017-12-05T20:26:06.951Z,102120.80
2017-12-05T20:28:35.607Z,102114.24
2017-12-05T20:31:04.147Z,102116.20
2017-12-05T20:33:32.760Z,102109.09
2017-12-05T20:36:01.523Z,102114.66
2017-12-05T20:38:29.828Z,102113.67
2017-12-05T20:40:58.307Z,102117.03
2017-12-05T20:43:26.657Z,102109.66
2017-12-05T20:45:54.993Z,102109.66
2017-12-05T20:48:23.312Z,102112.54
2017-12-05T20:50:52.735Z,102109.98
2017-12-05T20:53:21.046Z,102101.72
2017-12-05T20:55:49.347Z,102114.09
2017-12-05T20:58:17.764Z,102111.16
2017-12-05T21:00:46.388Z,102104.86
2017-12-05T21:03:14.963Z,102100.91
2017-12-05T21:05:43.360Z,102096.58
2017-12-05T21:08:11.729Z,102087.55
2017-12-05T21:10:40.123Z,102093.48
2017-12-05T21:13:08.469Z,102102.66
2017-12-05T21:15:36.835Z,102096.93
2017-12-05T21:18:05.435Z,102106.67
2017-12-05T21:20:34.186Z,102103.33
2017-12-05T21:23:02.577Z,102102.09
2017-12-05T21:25:30.941Z,102096.93
2017-12-05T21:27:59.730Z,102098.02
2017-12-05T21:30:28.461Z,102099.88
2017-12-05T21:32:56.795Z,102107.09
2017-12-05T21:35:25.091Z,102111.17
2017-12-05T21:37:55.805Z,102099.30
2017-12-05T21:40:24.327Z,102104.04
2017-12-05T21:42:52.636Z,102101.41
2017-12-05T21:45:21.287Z,102097.96
2017-12-05T21:47:49.698Z,102101.31
2017-12-05T21:50:18.223Z,102107.05
2017-12-05T21:52:46.637Z,102102.83
2017-12-05T21:55:17.017Z,102101.27
2017-12-05T21:57:49.582Z,102108.70
2017-12-05T22:00:19.351Z,102103.22
2017-12-05T22:02:47.623Z,102116.16
2017-12-05T22:05:15.935Z,102115.91
2017-12-05T22:07:44.219Z,102112.54
2017-12-05T22:10:12.558Z,102116.61
2017-12-05T22:12:40.821Z,102118.89
2017-12-05T22:15:09.276Z,102112.98
2017-12-05T22:17:37.554Z,102108.96
2017-12-05T22:20:05.874Z,102102.73
2017-12-05T22:22:34.259Z,102099.79
2017-12-05T22:25:03.239Z,102098.31
2017-12-05T22:27:32.850Z,102106.34
2017-12-05T22:30:01.299Z,102100.05
2017-12-05T22:32:32.605Z,102096.59
2017-12-05T22:35:00.899Z,102098.30
2017-12-05T22:37:29.291Z,102091.63
2017-12-05T22:39:57.735Z,102100.33
2017-12-05T22:42:26.170Z,102107.59
2017-12-05T22:44:54.482Z,102103.98
2017-12-05T22:47:22.807Z,102109.39
2017-12-05T22:49:51.358Z,102112.73
2017-12-05T22:52:19.654Z,102118.14
2017-12-05T22:54:48.123Z,102111.50
2017-12-05T22:57:16.435Z,102110.37
2017-12-05T22:59:44.704Z,102120.31
2017-12-05T23:02:13.195Z,102124.01
2017-12-05T23:04:41.563Z,102131.94
2017-12-05T23:07:10.671Z,102126.10
2017-12-05T23:09:40.815Z,102123.18
2017-12-05T23:12:11.923Z,102121.23
2017-12-05T23:14:41.536Z,102115.71
2017-12-05T23:17:12.171Z,102118.44
2017-12-05T23:19:40.651Z,102112.88
2017-12-05T23:22:09.115Z,102117.61
2017-12-05T23:24:37.399Z,102114.01
2017-12-05T23:27:05.683Z,102119.27
2017-12-05T23:29:34.179Z,102113.59
2017-12-05T23:32:02.632Z,102110.48
2017-12-05T23:34:31.062Z,102101.23
2017-12-05T23:36:59.500Z,102107.60
2017-12-05T23:39:27.751Z,102093.12
2017-12-05T23:41:56.059Z,102097.05
2017-12-05T23:44:24.323Z,102093.94
2017-12-05T23:46:52.682Z,102078.97
2017-12-05T23:49:21.154Z,102082.87
2017-12-05T23:51:49.451Z,102086.31
2017-12-05T23:54:17.703Z,102083.95
2017-12-05T23:56:46.023Z,102086.23
2017-12-05T23:59:14.449Z,102085.66
